Time;durP1;ratioP1;P1;durP2;ratioP2;P2;SDS_P1;SDS_P2;PMS_P1;PMS_P2;Temp;Humidity;BMP_temperature;BMP_pressure;BME280_temperature;BME280_humidity;BME280_pressure;Samples;Min_cycle;Max_cycle;Signal;HPM_P1;HPM_P2
2022/08/02 00:00:46;;;;;;;1.63;1.10;;;;;;;26.09;45.33;101776.28;5114617;28;20019;-45
2022/08/02 00:03:14;;;;;;;0.75;0.75;;;;;;;25.99;45.49;101774.38;5096574;28;20023;-55
2022/08/02 00:05:43;;;;;;;1.08;0.73;;;;;;;26.13;44.90;101779.00;5114939;28;20047;-44
2022/08/02 00:08:11;;;;;;;1.05;0.82;;;;;;;26.09;45.21;101773.66;5114470;28;20032;-44
2022/08/02 00:10:40;;;;;;;1.38;0.73;;;;;;;26.18;44.94;101779.97;5114541;28;20023;-48
2022/08/02 00:13:08;;;;;;;1.00;0.70;;;;;;;26.30;44.41;101774.03;5114266;28;20424;-44
2022/08/02 00:15:37;;;;;;;1.02;0.90;;;;;;;26.17;44.68;101770.31;5114341;28;20055;-44
2022/08/02 00:18:05;;;;;;;1.10;0.68;;;;;;;26.13;44.76;101766.75;5114504;28;20092;-46
2022/08/02 00:20:34;;;;;;;1.52;0.80;;;;;;;26.14;44.80;101773.78;5114243;28;20027;-44
2022/08/02 00:23:02;;;;;;;2.53;0.90;;;;;;;26.07;44.83;101772.75;5114260;28;20023;-45
2022/08/02 00:25:30;;;;;;;1.77;0.63;;;;;;;25.97;44.93;101759.44;5114094;28;20093;-50
2022/08/02 00:27:59;;;;;;;3.70;0.95;;;;;;;26.12;44.67;101765.00;5113748;28;20099;-51
2022/08/02 00:30:27;;;;;;;1.83;0.80;;;;;;;26.11;44.87;101775.44;5114204;28;20059;-56
2022/08/02 00:32:55;;;;;;;1.05;0.95;;;;;;;26.14;44.24;101771.16;5113868;28;20069;-45
2022/08/02 00:35:24;;;;;;;1.38;1.08;;;;;;;26.24;44.39;101770.44;5113826;28;20550;-48
2022/08/02 00:37:53;;;;;;;0.90;0.70;;;;;;;26.15;44.40;101772.03;5114186;28;20027;-44
2022/08/02 00:40:23;;;;;;;1.73;0.80;;;;;;;26.11;44.72;101778.06;5095988;28;20031;-47
2022/08/02 00:43:11;;;;;;;0.93;0.70;;;;;;;26.07;44.54;101766.59;5079181;28;20038;-51
2022/08/02 00:45:41;;;;;;;1.50;0.77;;;;;;;26.16;44.02;101768.53;5113674;28;20023;-49
2022/08/02 00:48:11;;;;;;;1.92;1.08;;;;;;;26.07;44.82;101769.25;5114292;28;20418;-48
2022/08/02 00:50:41;;;;;;;1.83;1.20;;;;;;;26.10;44.55;101764.03;5095796;28;20038;-49
2022/08/02 00:53:09;;;;;;;1.48;0.95;;;;;;;25.96;44.79;101766.44;5113925;28;20031;-44
2022/08/02 00:55:38;;;;;;;1.48;0.88;;;;;;;25.88;44.90;101750.53;5114124;28;20078;-55
2022/08/02 00:58:07;;;;;;;0.88;0.80;;;;;;;25.86;45.07;101752.22;5114115;28;20020;-50
2022/08/02 01:00:35;;;;;;;1.35;0.80;;;;;;;25.97;44.71;101757.69;5078576;28;20106;-43
2022/08/02 01:03:04;;;;;;;1.92;0.88;;;;;;;26.02;44.54;101755.13;5094982;28;20034;-44
2022/08/02 01:05:33;;;;;;;1.70;1.00;;;;;;;25.85;44.73;101726.81;5113871;28;20027;-48
2022/08/02 01:08:02;;;;;;;0.98;0.70;;;;;;;25.96;44.52;101755.03;5113874;28;20398;-46
2022/08/02 01:10:31;;;;;;;1.23;0.85;;;;;;;25.93;44.61;101750.59;5113398;28;20038;-46
2022/08/02 01:13:00;;;;;;;1.27;0.80;;;;;;;25.91;44.91;101750.56;5095763;28;20063;-46
2022/08/02 01:15:29;;;;;;;1.42;0.80;;;;;;;25.90;44.50;101740.91;5113973;28;20022;-44
2022/08/02 01:18:08;;;;;;;0.90;0.82;;;;;;;25.82;45.25;101747.78;5077810;28;20024;-51
2022/08/02 01:21:15;;;;;;;1.02;0.90;;;;;;;25.97;44.57;101739.28;5113574;28;20028;-49
2022/08/02 01:23:57;;;;;;;2.05;1.08;;;;;;;25.97;44.78;101735.78;5111365;28;20032;-49
2022/08/02 01:26:33;;;;;;;1.17;0.77;;;;;;;25.90;44.69;101743.56;5095623;28;20039;-48
2022/08/02 01:29:30;;;;;;;2.55;1.52;;;;;;;25.90;44.69;101738.28;5113413;28;20057;-45
2022/08/02 01:32:06;;;;;;;0.80;0.80;;;;;;;25.84;44.84;101740.81;5090071;28;20063;-47
2022/08/02 01:34:51;;;;;;;1.25;1.15;;;;;;;25.85;44.73;101741.69;5095205;28;20032;-48
2022/08/02 01:37:28;;;;;;;1.15;0.90;;;;;;;25.91;44.79;101739.16;5095479;28;20032;-48
2022/08/02 01:40:01;;;;;;;1.23;0.70;;;;;;;25.76;44.93;101726.66;5095389;28;20028;-45
2022/08/02 01:42:31;;;;;;;1.33;0.90;;;;;;;25.76;44.65;101724.03;5113338;28;20093;-46
2022/08/02 01:45:02;;;;;;;1.42;1.02;;;;;;;25.82;44.58;101726.75;5095420;28;20019;-45
2022/08/02 01:47:34;;;;;;;0.88;0.63;;;;;;;25.63;45.02;101726.44;5095187;28;20035;-48
2022/08/02 01:50:04;;;;;;;1.25;0.95;;;;;;;25.63;45.09;101718.56;5078481;28;20031;-49
2022/08/02 01:52:36;;;;;;;0.88;0.70;;;;;;;25.79;44.49;101718.84;5113808;28;20093;-45
2022/08/02 01:55:08;;;;;;;1.52;0.80;;;;;;;25.82;44.73;101725.88;5079028;28;20027;-46
2022/08/02 01:57:47;;;;;;;1.98;0.95;;;;;;;25.57;45.24;101720.16;5095066;28;20023;-45
2022/08/02 02:00:18;;;;;;;1.98;1.05;;;;;;;25.65;44.87;101702.81;5094652;28;20431;-44
2022/08/02 02:02:49;;;;;;;1.48;1.10;;;;;;;25.66;44.86;101719.44;5094269;28;20028;-49
2022/08/02 02:05:20;;;;;;;0.88;0.80;;;;;;;25.59;45.13;101723.72;5113097;28;20034;-49
2022/08/02 02:07:58;;;;;;;1.38;1.13;;;;;;;25.57;45.08;101720.16;5095512;28;20038;-48
2022/08/02 02:10:29;;;;;;;1.50;1.20;;;;;;;25.51;44.86;101707.81;5112763;28;20024;-54
2022/08/02 02:13:01;;;;;;;1.75;1.20;;;;;;;25.57;45.08;101710.56;5112216;28;20123;-47
2022/08/02 02:15:32;;;;;;;5.57;1.20;;;;;;;25.52;44.89;101714.84;5095049;28;20390;-49
2022/08/02 02:18:02;;;;;;;1.20;1.10;;;;;;;25.45;45.20;101716.47;5112687;28;20111;-46
2022/08/02 02:20:30;;;;;;;1.10;0.90;;;;;;;25.51;45.17;101715.69;5112375;28;20024;-49
2022/08/02 02:22:59;;;;;;;1.50;1.02;;;;;;;25.54;45.17;101713.13;5112476;28;20027;-47
2022/08/02 02:25:28;;;;;;;3.40;1.08;;;;;;;25.58;44.79;101714.97;5094578;28;20402;-51
2022/08/02 02:28:04;;;;;;;1.50;0.88;;;;;;;25.72;44.63;101719.56;5112598;28;20023;-48
2022/08/02 02:30:33;;;;;;;1.35;1.05;;;;;;;25.53;44.80;101708.72;5095907;28;20467;-51
2022/08/02 02:33:03;;;;;;;1.95;1.10;;;;;;;25.52;44.65;101708.72;5098380;28;20531;-51
2022/08/02 02:35:35;;;;;;;2.05;1.15;;;;;;;25.37;45.19;101698.75;5116547;28;20510;-49
2022/08/02 02:38:12;;;;;;;3.17;1.13;;;;;;;25.45;44.75;101705.09;5098570;28;20428;-51
2022/08/02 02:40:42;;;;;;;0.82;0.82;;;;;;;25.39;45.22;101713.72;5116307;28;20381;-44
2022/08/02 02:43:12;;;;;;;1.10;0.98;;;;;;;25.40;44.89;101709.34;5098436;28;20427;-49
2022/08/02 02:45:41;;;;;;;1.58;1.15;;;;;;;25.39;44.97;101710.19;5097725;28;20089;-48
2022/08/02 02:48:10;;;;;;;1.95;1.30;;;;;;;25.37;45.05;101693.50;5098095;28;20034;-48
2022/08/02 02:50:39;;;;;;;1.20;1.10;;;;;;;25.34;45.10;101705.72;5097961;28;20496;-47
2022/08/02 02:53:09;;;;;;;1.48;1.00;;;;;;;25.31;45.26;101704.78;5097907;28;20019;-49
2022/08/02 02:55:38;;;;;;;2.33;1.60;;;;;;;25.25;45.25;101695.06;5116113;28;20531;-50
2022/08/02 02:58:07;;;;;;;1.83;1.25;;;;;;;25.26;45.27;101685.41;5116139;28;20027;-46
2022/08/02 03:03:25;;;;;;;1.33;1.20;;;;;;;25.29;45.44;101688.13;5094383;28;20470;-47
2022/08/02 03:05:53;;;;;;;1.10;1.00;;;;;;;25.18;45.39;101682.66;5097896;28;20475;-52
2022/08/02 03:08:22;;;;;;;2.28;1.50;;;;;;;25.20;45.26;101673.06;5115718;28;20539;-45
2022/08/02 03:10:51;;;;;;;2.58;1.30;;;;;;;25.20;45.03;101665.19;5097725;28;20386;-44
2022/08/02 03:13:19;;;;;;;1.80;1.33;;;;;;;25.25;45.20;101676.69;5115341;28;20037;-51
2022/08/02 03:15:48;;;;;;;0.88;0.88;;;;;;;25.22;45.00;101673.13;5115820;28;20020;-51
2022/08/02 03:18:37;;;;;;;1.15;1.05;;;;;;;25.12;45.44;101677.31;5115741;28;20027;-46
2022/08/02 03:21:08;;;;;;;1.58;1.15;;;;;;;25.10;45.14;101679.88;5106930;28;20041;-48
2022/08/02 03:23:37;;;;;;;1.13;1.02;;;;;;;25.13;44.97;101666.81;5115523;28;20474;-52
2022/08/02 03:26:06;;;;;;;1.42;1.10;;;;;;;25.17;45.18;101673.91;5114900;28;20048;-47
2022/08/02 03:28:35;;;;;;;1.13;1.02;;;;;;;25.09;45.24;101672.00;5115451;28;20020;-47
2022/08/02 03:31:03;;;;;;;1.20;1.10;;;;;;;25.12;45.34;101672.06;5115174;28;20450;-49
2022/08/02 03:33:32;;;;;;;2.90;1.00;;;;;;;25.10;45.13;101676.38;5115073;28;20055;-52
2022/08/02 03:36:07;;;;;;;1.20;1.10;;;;;;;24.99;45.30;101666.53;5096702;28;20102;-49
2022/08/02 03:38:36;;;;;;;1.65;0.90;;;;;;;25.09;45.05;101672.00;5115323;28;20377;-46
2022/08/02 03:41:09;;;;;;;2.20;1.13;;;;;;;25.02;45.32;101668.38;5114316;28;20046;-46
2022/08/02 03:43:38;;;;;;;1.60;1.23;;;;;;;25.08;44.85;101668.47;5097253;28;20069;-47
2022/08/02 03:46:08;;;;;;;1.00;0.90;;;;;;;25.14;44.71;101676.47;5115524;28;20020;-51
2022/08/02 03:48:38;;;;;;;1.90;1.17;;;;;;;25.24;44.70;101667.03;5097169;28;20119;-49
2022/08/02 03:51:06;;;;;;;1.27;1.17;;;;;;;25.29;44.42;101668.00;5114620;28;20023;-49
2022/08/02 03:53:35;;;;;;;1.10;1.00;;;;;;;25.21;44.48;101672.22;5114623;28;20031;-50
2022/08/02 03:56:06;;;;;;;1.70;1.00;;;;;;;25.24;44.65;101668.75;5114843;28;20068;-51
2022/08/02 03:58:35;;;;;;;1.70;1.30;;;;;;;25.10;44.82;101672.00;5115046;28;20020;-48
2022/08/02 04:01:03;;;;;;;1.95;1.30;;;;;;;24.83;45.42;101661.84;5114583;28;20031;-49
2022/08/02 04:03:32;;;;;;;1.40;1.30;;;;;;;24.84;45.51;101663.59;5114656;28;20058;-47
2022/08/02 04:06:00;;;;;;;1.45;1.35;;;;;;;24.84;45.64;101668.84;5114641;28;20019;-48
2022/08/02 04:08:29;;;;;;;1.52;1.17;;;;;;;24.84;45.50;101660.97;5114497;28;20387;-48
2022/08/02 04:11:37;;;;;;;2.03;1.10;;;;;;;24.84;46.09;101668.84;5114478;28;20027;-48
2022/08/02 04:13:44;;;;;;;1.38;1.27;;;;;;;24.83;45.96;101668.00;5108049;28;20075;-51
2022/08/02 04:16:33;;;;;;;1.70;1.50;;;;;;;24.81;46.27;101666.19;5096621;28;20019;-49
2022/08/02 04:19:04;;;;;;;1.52;1.42;;;;;;;24.55;46.60;101620.16;5114041;28;20505;-44
2022/08/02 04:21:36;;;;;;;8.00;1.80;;;;;;;24.87;45.91;101661.06;5114300;28;20024;-49
2022/08/02 04:24:06;;;;;;;1.55;1.33;;;;;;;24.80;46.45;101653.94;5114325;28;20019;-47
2022/08/02 04:26:35;;;;;;;1.40;1.30;;;;;;;24.77;46.57;101661.72;5095558;28;20434;-50
2022/08/02 04:29:04;;;;;;;1.63;1.50;;;;;;;24.86;46.20;101657.56;5114240;28;20030;-51
2022/08/02 04:31:33;;;;;;;1.48;1.38;;;;;;;24.90;46.23;101655.00;5096206;28;20024;-47
2022/08/02 04:34:02;;;;;;;1.15;1.05;;;;;;;24.87;45.98;101656.72;5113576;28;20035;-47
2022/08/02 04:36:31;;;;;;;1.40;1.30;;;;;;;24.81;46.46;101659.19;5113941;28;20039;-50
2022/08/02 04:38:59;;;;;;;1.45;1.10;;;;;;;24.78;46.11;101653.88;5113721;28;20039;-47
2022/08/02 04:41:42;;;;;;;1.30;1.20;;;;;;;24.83;46.47;101653.97;5078709;28;20432;-48
2022/08/02 04:44:11;;;;;;;1.05;0.95;;;;;;;24.83;46.22;101654.88;5113748;28;20031;-48
2022/08/02 04:46:41;;;;;;;1.52;1.30;;;;;;;24.75;46.79;101656.44;5113973;28;20431;-49
2022/08/02 04:49:10;;;;;;;1.50;1.40;;;;;;;24.73;46.42;101660.78;5113665;28;20084;-45
2022/08/02 04:51:43;;;;;;;1.48;1.35;;;;;;;24.73;46.59;101660.78;5113504;28;20034;-44
2022/08/02 04:54:12;;;;;;;3.38;1.25;;;;;;;24.77;46.57;101659.09;5112760;28;20063;-49
2022/08/02 04:56:41;;;;;;;1.23;1.13;;;;;;;24.70;46.75;101666.84;5095815;28;20115;-50
2022/08/02 04:59:11;;;;;;;1.40;1.30;;;;;;;24.79;46.61;101670.53;5112966;28;20039;-53
2022/08/02 05:01:41;;;;;;;1.60;1.30;;;;;;;24.64;46.65;101648.34;5096160;28;20062;-49
2022/08/02 05:04:09;;;;;;;1.65;1.13;;;;;;;24.92;46.10;101664.66;5113711;28;20063;-48
2022/08/02 05:06:38;;;;;;;2.75;1.30;;;;;;;24.88;46.28;101665.44;5113427;28;20437;-49
2022/08/02 05:09:07;;;;;;;1.65;1.30;;;;;;;24.94;45.96;101675.19;5113459;28;20390;-53
2022/08/02 05:11:35;;;;;;;1.35;1.13;;;;;;;24.85;46.53;101670.63;5113466;28;20474;-52
2022/08/02 05:14:05;;;;;;;4.40;1.58;;;;;;;24.76;46.71;101678.31;5113447;28;20031;-50
2022/08/02 05:16:34;;;;;;;4.07;1.20;;;;;;;24.73;46.97;101684.41;5078920;28;20040;-51
2022/08/02 05:19:02;;;;;;;1.67;1.00;;;;;;;24.78;46.71;101674.88;5113215;28;20474;-49
2022/08/02 05:21:32;;;;;;;1.25;0.80;;;;;;;24.71;46.94;101692.22;5113531;28;20053;-54
2022/08/02 05:24:00;;;;;;;1.70;1.60;;;;;;;24.70;46.93;101685.22;5113573;28;20034;-49
2022/08/02 05:26:29;;;;;;;1.55;1.10;;;;;;;24.73;47.12;101692.28;5112998;28;20040;-55
2022/08/02 05:28:58;;;;;;;1.67;1.10;;;;;;;24.93;46.48;101687.44;5078632;28;20020;-46
2022/08/02 05:31:26;;;;;;;1.48;1.38;;;;;;;24.97;46.70;101694.53;5113337;28;20114;-48
2022/08/02 05:33:55;;;;;;;1.88;1.10;;;;;;;24.88;46.42;101692.59;5113030;28;20538;-49
2022/08/02 05:36:24;;;;;;;2.00;1.23;;;;;;;24.96;46.36;101703.25;5113185;28;20367;-50
2022/08/02 05:38:52;;;;;;;1.30;1.20;;;;;;;25.01;46.42;101704.22;5112928;28;20028;-48
2022/08/02 05:41:21;;;;;;;1.10;1.00;;;;;;;25.02;46.15;101692.84;5112933;28;20034;-53
2022/08/02 05:43:50;;;;;;;1.13;1.00;;;;;;;25.06;46.33;101698.19;5095215;28;20547;-47
2022/08/02 05:46:17;;;;;;;1.02;0.85;;;;;;;25.06;46.15;101706.03;5112955;28;20031;-48
2022/08/02 05:48:46;;;;;;;1.42;1.00;;;;;;;25.03;46.12;101696.38;5112239;28;20057;-47
2022/08/02 05:51:29;;;;;;;1.40;1.10;;;;;;;24.99;46.57;101695.41;5112329;28;20032;-50
2022/08/02 05:54:09;;;;;;;0.93;0.80;;;;;;;25.02;46.43;101698.09;5112000;28;20031;-50
2022/08/02 05:56:48;;;;;;;1.15;0.85;;;;;;;25.03;46.04;101691.13;5113153;28;20027;-52
2022/08/02 05:59:21;;;;;;;1.38;0.80;;;;;;;25.03;46.40;101697.25;5094971;28;20068;-45
2022/08/02 06:01:50;;;;;;;0.90;0.68;;;;;;;25.16;46.07;101697.50;5112599;28;20035;-51
2022/08/02 06:04:29;;;;;;;3.75;0.80;;;;;;;25.04;46.40;101700.78;5095878;28;20020;-49
2022/08/02 06:07:02;;;;;;;0.80;0.80;;;;;;;25.02;46.51;101700.72;5098928;28;20036;-52
2022/08/02 06:09:30;;;;;;;1.30;0.85;;;;;;;25.05;45.98;101697.31;5098499;28;20035;-47
2022/08/02 06:12:00;;;;;;;1.17;0.70;;;;;;;25.14;45.93;101699.22;5099248;28;20031;-49
2022/08/02 06:14:30;;;;;;;1.15;0.68;;;;;;;25.04;46.69;101703.41;5098901;28;20034;-53
2022/08/02 06:16:59;;;;;;;0.75;0.75;;;;;;;24.94;47.18;101704.97;5098822;28;20491;-47
2022/08/02 06:19:28;;;;;;;0.70;0.70;;;;;;;24.96;46.84;101700.63;5116705;28;20015;-47
2022/08/02 06:22:13;;;;;;;0.90;0.80;;;;;;;25.03;46.96;101701.63;5117052;28;20201;-51
2022/08/02 06:24:45;;;;;;;0.60;0.60;;;;;;;24.98;46.82;101705.91;5101414;28;20043;-52
2022/08/02 06:27:15;;;;;;;1.55;0.50;;;;;;;25.07;46.81;101710.44;5098431;28;20030;-46
2022/08/02 06:29:45;;;;;;;1.08;0.63;;;;;;;24.99;47.25;101708.53;5116629;28;20038;-45
2022/08/02 06:32:18;;;;;;;3.13;0.60;;;;;;;25.09;46.63;101712.25;5082143;28;20027;-55
2022/08/02 06:34:46;;;;;;;2.72;0.65;;;;;;;25.02;47.13;101694.59;5116124;28;20027;-44
2022/08/02 06:37:53;;;;;;;0.75;0.65;;;;;;;25.01;47.35;101701.59;5098417;28;20053;-49
2022/08/02 06:40:27;;;;;;;1.65;0.70;;;;;;;25.07;46.87;101702.56;5104375;28;20090;-47
2022/08/02 06:43:11;;;;;;;0.40;0.40;;;;;;;25.12;47.03;101703.56;5098486;28;20027;-46
2022/08/02 06:45:40;;;;;;;0.60;0.60;;;;;;;25.18;46.65;101701.03;5116833;28;20031;-45
2022/08/02 06:48:10;;;;;;;0.65;0.40;;;;;;;25.15;46.93;101701.00;5116151;28;20024;-46
2022/08/02 06:50:40;;;;;;;0.98;0.40;;;;;;;25.24;46.58;101709.03;5116137;28;20051;-46
2022/08/02 06:53:10;;;;;;;0.60;0.60;;;;;;;25.28;46.44;101699.47;5098051;28;20382;-46
2022/08/02 06:55:38;;;;;;;0.32;0.32;;;;;;;25.36;45.97;101699.63;5115904;28;20386;-50
2022/08/02 06:58:07;;;;;;;0.40;0.40;;;;;;;25.46;45.84;101701.63;5098187;28;20026;-47
2022/08/02 07:00:37;;;;;;;1.15;0.50;;;;;;;25.43;45.57;101691.91;5115505;28;20411;-46
2022/08/02 07:03:06;;;;;;;1.23;0.88;;;;;;;25.38;46.02;101698.81;5115453;28;20367;-48
2022/08/02 07:05:35;;;;;;;0.57;0.47;;;;;;;25.54;45.91;101697.38;5116160;28;20422;-49
2022/08/02 07:08:04;;;;;;;0.40;0.40;;;;;;;25.52;46.00;101699.06;5115825;28;20497;-48
2022/08/02 07:10:32;;;;;;;0.47;0.40;;;;;;;25.53;45.74;101700.84;5115448;28;20032;-51
2022/08/02 07:13:02;;;;;;;1.30;0.40;;;;;;;25.62;45.66;101698.41;5115629;28;20043;-51
2022/08/02 07:15:32;;;;;;;0.35;0.35;;;;;;;25.68;45.68;101696.72;5115424;28;20024;-48
2022/08/02 07:18:00;;;;;;;1.95;0.40;;;;;;;25.67;45.68;101694.94;5115150;28;20036;-48
2022/08/02 07:20:29;;;;;;;0.70;0.38;;;;;;;25.82;45.51;101704.84;5115671;28;20035;-49
2022/08/02 07:22:56;;;;;;;0.40;0.25;;;;;;;25.83;45.61;101698.72;5115344;28;20046;-47
2022/08/02 07:25:23;;;;;;;0.50;0.38;;;;;;;25.88;45.35;101699.72;5115251;28;20044;-49
2022/08/02 07:27:51;;;;;;;0.70;0.30;;;;;;;25.90;45.27;101696.22;5115612;28;20084;-47
2022/08/02 07:30:20;;;;;;;2.03;0.30;;;;;;;26.07;45.37;101709.63;5115134;28;20081;-51
2022/08/02 07:32:49;;;;;;;0.75;0.30;;;;;;;26.09;45.52;101710.53;5115118;28;20425;-48
2022/08/02 07:35:16;;;;;;;2.42;0.40;;;;;;;26.21;45.05;101699.38;5115105;28;20038;-50
2022/08/02 07:37:45;;;;;;;3.63;0.80;;;;;;;26.11;45.30;101702.72;5115303;28;20019;-46
2022/08/02 07:40:15;;;;;;;0.82;0.40;;;;;;;26.19;44.98;101698.47;5114487;28;20020;-45
2022/08/02 07:42:43;;;;;;;0.30;0.20;;;;;;;26.27;44.82;101703.84;5115320;28;20024;-50
2022/08/02 07:45:12;;;;;;;0.32;0.30;;;;;;;26.33;45.10;101703.94;5096900;28;20020;-47
2022/08/02 07:47:41;;;;;;;0.85;0.30;;;;;;;26.42;45.06;101699.66;5115238;28;20110;-46
2022/08/02 07:50:11;;;;;;;0.50;0.50;;;;;;;26.49;44.72;101693.63;5115043;28;20425;-49
2022/08/02 07:52:40;;;;;;;1.55;0.50;;;;;;;26.49;45.24;101694.50;5114615;28;20024;-45
2022/08/02 07:55:10;;;;;;;0.43;0.30;;;;;;;26.55;44.79;101693.72;5114767;28;20061;-52
2022/08/02 07:57:39;;;;;;;1.58;0.55;;;;;;;26.62;45.00;101689.44;5114922;28;20020;-47
2022/08/02 08:00:09;;;;;;;0.50;0.30;;;;;;;26.69;44.94;101694.78;5114899;28;20076;-55
2022/08/02 08:02:37;;;;;;;0.50;0.40;;;;;;;26.77;44.96;101688.72;5114671;28;20073;-52
2022/08/02 08:05:06;;;;;;;0.68;0.55;;;;;;;26.84;44.82;101690.63;5114705;28;20073;-51
2022/08/02 08:07:35;;;;;;;1.83;0.50;;;;;;;26.84;44.89;101683.59;5114736;28;20386;-48
2022/08/02 08:10:05;;;;;;;1.38;0.70;;;;;;;26.86;44.75;101696.78;5114398;28;20023;-51
2022/08/02 08:12:33;;;;;;;1.15;0.40;;;;;;;26.84;44.53;101687.97;5114271;28;20055;-53
2022/08/02 08:15:02;;;;;;;0.57;0.20;;;;;;;27.01;44.17;101698.69;5079544;28;20027;-50
2022/08/02 08:17:31;;;;;;;5.15;0.88;;;;;;;27.09;44.71;101691.78;5096737;28;20023;-47
2022/08/02 08:20:00;;;;;;;5.22;0.55;;;;;;;26.98;44.54;101683.75;5096173;28;20119;-47
2022/08/02 08:22:29;;;;;;;1.80;0.40;;;;;;;27.02;44.21;101689.06;5079491;28;20035;-45
2022/08/02 08:24:57;;;;;;;1.17;0.30;;;;;;;27.10;44.42;101685.66;5114264;28;20044;-47
2022/08/02 08:27:26;;;;;;;3.20;0.47;;;;;;;27.11;43.93;101678.63;5114156;28;20110;-52
2022/08/02 08:29:54;;;;;;;2.85;0.40;;;;;;;27.22;44.24;101689.28;5114318;28;20019;-48
2022/08/02 08:32:23;;;;;;;1.25;0.50;;;;;;;27.28;43.93;101690.22;5095930;28;20024;-55
2022/08/02 08:34:52;;;;;;;0.93;0.45;;;;;;;27.29;44.00;101688.50;5113799;28;20038;-45
2022/08/02 08:37:20;;;;;;;0.50;0.50;;;;;;;27.39;43.77;101692.06;5096604;28;20036;-47
2022/08/02 08:39:49;;;;;;;1.70;0.60;;;;;;;27.37;43.89;101685.94;5114118;28;20076;-45
2022/08/02 08:42:18;;;;;;;0.57;0.50;;;;;;;27.51;43.55;101691.34;5114103;28;20028;-50
2022/08/02 08:44:46;;;;;;;0.45;0.30;;;;;;;27.45;43.64;101678.97;5114060;28;20027;-50
2022/08/02 08:47:15;;;;;;;2.20;0.77;;;;;;;27.49;43.77;101683.44;5114035;28;20432;-44
2022/08/02 08:49:46;;;;;;;1.13;0.40;;;;;;;27.47;43.74;101681.69;5095493;28;20102;-45
2022/08/02 08:52:16;;;;;;;0.40;0.40;;;;;;;27.46;43.71;101679.91;5096290;28;20027;-53
2022/08/02 08:54:45;;;;;;;0.65;0.50;;;;;;;27.51;43.62;101683.44;5096243;28;20482;-45
2022/08/02 08:57:14;;;;;;;4.20;0.65;;;;;;;27.58;43.57;101685.28;5095892;28;20088;-44
2022/08/02 08:59:42;;;;;;;5.03;0.55;;;;;;;27.65;43.62;101688.84;5095852;28;20077;-48
2022/08/02 09:02:12;;;;;;;0.70;0.60;;;;;;;27.86;43.10;101690.78;5113781;28;20347;-50
2022/08/02 09:04:41;;;;;;;1.95;0.50;;;;;;;27.92;43.03;101689.94;5113594;28;20030;-44
2022/08/02 09:07:09;;;;;;;1.02;0.60;;;;;;;27.91;42.89;101683.78;5095860;28;20028;-46
2022/08/02 09:09:38;;;;;;;5.20;0.68;;;;;;;28.00;42.46;101681.22;5113535;28;20463;-43
2022/08/02 09:12:16;;;;;;;0.90;0.50;;;;;;;27.99;42.84;101691.75;5112758;28;20035;-50
2022/08/02 09:14:45;;;;;;;2.15;0.50;;;;;;;27.96;42.68;101687.38;5113378;28;20389;-49
2022/08/02 09:17:14;;;;;;;0.95;0.50;;;;;;;27.97;42.54;101677.69;5113182;28;20089;-46
2022/08/02 09:19:42;;;;;;;0.85;0.60;;;;;;;27.97;42.21;101670.63;5113417;28;20386;-45
2022/08/02 09:22:12;;;;;;;2.88;0.30;;;;;;;28.01;42.50;101680.34;5113560;28;20016;-50
2022/08/02 09:24:43;;;;;;;3.70;0.60;;;;;;;28.04;42.59;101677.72;5113464;28;20047;-46
2022/08/02 09:27:14;;;;;;;0.50;0.30;;;;;;;28.11;42.30;101677.81;5113291;28;20061;-46
2022/08/02 09:29:47;;;;;;;1.55;0.50;;;;;;;28.22;42.08;101691.94;5113408;28;20027;-44
2022/08/02 09:32:17;;;;;;;1.40;0.40;;;;;;;28.22;42.01;101683.13;5113595;28;20034;-52
2022/08/02 09:34:47;;;;;;;1.65;0.50;;;;;;;28.26;42.03;101684.94;5113599;28;20032;-49
2022/08/02 09:37:25;;;;;;;0.73;0.38;;;;;;;28.39;41.62;101684.13;5113819;28;20513;-51
2022/08/02 09:39:54;;;;;;;0.47;0.43;;;;;;;28.37;41.52;101682.38;5115141;28;20054;-54
2022/08/02 09:42:23;;;;;;;0.77;0.40;;;;;;;28.31;41.77;101673.53;5082361;28;20378;-54
2022/08/02 09:44:55;;;;;;;1.30;0.52;;;;;;;28.43;41.51;101680.63;5117457;28;20031;-50
2022/08/02 09:47:25;;;;;;;0.88;0.57;;;;;;;28.47;41.38;101689.44;5100012;28;20028;-54
2022/08/02 09:49:56;;;;;;;1.45;0.50;;;;;;;28.45;41.54;101686.81;5117275;28;20398;-50
2022/08/02 09:52:27;;;;;;;0.50;0.50;;;;;;;28.46;41.56;101687.72;5117495;28;20149;-48
2022/08/02 09:55:07;;;;;;;2.03;0.50;;;;;;;28.46;41.49;101693.00;5117540;28;20027;-49
2022/08/02 09:57:39;;;;;;;0.55;0.40;;;;;;;28.46;41.36;101687.72;5098615;28;20027;-44
2022/08/02 10:00:10;;;;;;;0.35;0.30;;;;;;;28.43;41.41;101679.78;5117126;28;20081;-44
2022/08/02 10:02:39;;;;;;;4.18;0.60;;;;;;;28.58;41.36;101693.03;5117132;28;20028;-55
2022/08/02 10:05:07;;;;;;;1.33;0.63;;;;;;;28.61;40.81;101686.88;5082288;28;20031;-48
2022/08/02 10:07:36;;;;;;;2.15;0.63;;;;;;;28.65;41.12;101686.91;5098813;28;20027;-55
2022/08/02 10:10:06;;;;;;;0.75;0.60;;;;;;;28.48;41.09;101654.25;5099191;28;20385;-47
2022/08/02 10:12:36;;;;;;;1.38;0.50;;;;;;;28.64;40.92;101668.44;5116918;28;20474;-53
2022/08/02 10:15:05;;;;;;;1.60;0.43;;;;;;;28.84;40.51;101675.59;5099413;28;20114;-50
2022/08/02 10:17:35;;;;;;;3.72;0.98;;;;;;;28.83;40.39;101682.59;5116985;28;20098;-45
2022/08/02 10:20:04;;;;;;;1.23;0.50;;;;;;;28.83;41.02;101692.31;5098611;28;20035;-44
2022/08/02 10:22:34;;;;;;;1.98;0.55;;;;;;;28.78;40.76;101689.66;5117121;28;20024;-47
2022/08/02 10:25:04;;;;;;;1.45;0.70;;;;;;;28.66;40.71;101674.59;5116964;28;20398;-52
2022/08/02 10:27:34;;;;;;;1.13;0.80;;;;;;;28.68;40.57;101671.94;5117175;28;20034;-47
2022/08/02 10:30:03;;;;;;;1.55;0.52;;;;;;;28.68;40.63;101682.50;5116593;28;20039;-49
2022/08/02 10:32:33;;;;;;;1.52;0.80;;;;;;;28.64;40.38;101677.22;5117222;28;20374;-44
2022/08/02 10:35:08;;;;;;;1.70;0.60;;;;;;;28.48;40.31;101667.47;5098549;28;20394;-45
2022/08/02 10:37:38;;;;;;;3.47;0.95;;;;;;;28.57;40.04;101667.53;5098558;28;20042;-44
2022/08/02 10:40:21;;;;;;;0.85;0.63;;;;;;;28.65;40.35;101696.59;5097813;28;20177;-46
2022/08/02 10:42:52;;;;;;;5.32;0.85;;;;;;;28.61;40.54;101679.88;5100430;28;20027;-49
2022/08/02 10:45:22;;;;;;;1.58;0.88;;;;;;;28.59;40.32;101684.25;5116372;28;20027;-44
2022/08/02 10:48:13;;;;;;;1.67;0.95;;;;;;;28.72;40.48;101689.56;5098566;28;20493;-48
2022/08/02 10:50:51;;;;;;;1.83;0.80;;;;;;;28.84;40.02;101680.88;5097025;28;20104;-53
2022/08/02 10:53:29;;;;;;;2.50;0.80;;;;;;;28.86;40.09;101676.47;5097837;28;20031;-45
2022/08/02 10:56:01;;;;;;;2.15;0.80;;;;;;;28.82;40.25;101675.56;5098581;28;20100;-45
2022/08/02 10:58:31;;;;;;;3.05;0.50;;;;;;;28.88;40.31;101678.22;5116414;28;20019;-52
2022/08/02 11:01:19;;;;;;;2.53;0.70;;;;;;;28.83;39.93;101674.69;5116168;28;20391;-44
2022/08/02 11:03:47;;;;;;;1.73;0.90;;;;;;;28.84;40.04;101680.88;5105304;28;20470;-45
2022/08/02 11:06:15;;;;;;;1.83;0.75;;;;;;;28.89;39.69;101676.47;5115931;28;20435;-45
2022/08/02 11:08:44;;;;;;;1.02;0.50;;;;;;;28.85;39.84;101667.66;5115673;28;20455;-49
2022/08/02 11:11:12;;;;;;;1.45;0.75;;;;;;;28.91;40.19;101674.72;5097794;28;20115;-45
2022/08/02 11:14:03;;;;;;;1.30;0.60;;;;;;;28.88;39.82;101670.31;5115820;28;20020;-46
2022/08/02 11:17:01;;;;;;;1.42;0.60;;;;;;;28.85;39.67;101666.78;5115336;28;20450;-45
2022/08/02 11:19:30;;;;;;;2.05;0.57;;;;;;;28.96;39.27;101662.41;5110620;28;20036;-45
2022/08/02 11:22:02;;;;;;;1.52;0.60;;;;;;;28.88;39.27;101662.38;5115595;28;20027;-48
2022/08/02 11:24:32;;;;;;;1.73;0.60;;;;;;;28.86;39.61;101665.91;5115203;28;20031;-56
2022/08/02 11:27:03;;;;;;;0.77;0.63;;;;;;;28.80;39.61;101661.47;5115225;28;20092;-45
2022/08/02 11:29:34;;;;;;;1.50;0.55;;;;;;;28.84;39.53;101657.09;5115191;28;20026;-45
2022/08/02 11:32:03;;;;;;;0.60;0.50;;;;;;;28.93;39.37;101650.09;5115457;28;20020;-45
2022/08/02 11:34:32;;;;;;;1.42;0.55;;;;;;;28.89;39.19;101652.69;5097149;28;20452;-45
2022/08/02 11:37:01;;;;;;;1.77;0.70;;;;;;;28.65;39.23;101649.94;5114755;28;20463;-46
2022/08/02 11:39:30;;;;;;;1.63;0.65;;;;;;;28.39;39.45;101643.69;5115100;28;20122;-46
2022/08/02 11:42:00;;;;;;;4.45;0.95;;;;;;;28.43;39.64;101653.38;5114960;28;20027;-45
2022/08/02 11:44:30;;;;;;;3.88;1.08;;;;;;;28.62;39.56;101655.22;5096795;28;20015;-46